Time;durP1;ratioP1;P1;durP2;ratioP2;P2;SDS_P1;SDS_P2;PMS_P1;PMS_P2;Temp;Humidity;BMP_temperature;BMP_pressure;BME280_temperature;BME280_humidity;BME280_pressure;Samples;Min_cycle;Max_cycle;Signal;HPM_P1;HPM_P2
2022/06/26 00:01:25;;;;;;;3.53;2.60;;;;;;;20.48;58.86;98758.19;5139255;28;20053;-72
2022/06/26 00:04:14;;;;;;;4.88;3.00;;;;;;;20.28;59.18;98744.78;5139111;28;20054;-73
2022/06/26 00:07:05;;;;;;;4.97;3.15;;;;;;;20.15;61.17;98756.44;5140395;28;20061;-71
2022/06/26 00:09:55;;;;;;;5.50;3.35;;;;;;;20.08;61.33;98763.69;5136672;28;20519;-72
2022/06/26 00:12:46;;;;;;;5.97;3.15;;;;;;;20.13;60.96;98764.72;5138567;28;20184;-73
2022/06/26 00:15:36;;;;;;;4.15;3.30;;;;;;;20.11;60.51;98774.88;5141049;28;20055;-70
2022/06/26 00:18:26;;;;;;;7.22;3.13;;;;;;;20.02;62.50;98777.97;5139326;28;20055;-72
2022/06/26 00:21:16;;;;;;;3.50;3.00;;;;;;;19.96;62.47;98774.25;5139788;28;20056;-70
2022/06/26 00:24:07;;;;;;;3.97;2.90;;;;;;;19.97;61.46;98781.31;5140167;28;20181;-71
2022/06/26 00:26:57;;;;;;;4.05;2.97;;;;;;;19.93;62.19;98790.81;5136066;28;20086;-71
2022/06/26 00:29:47;;;;;;;3.38;2.67;;;;;;;19.99;62.77;98795.38;5138941;28;20073;-71
2022/06/26 00:32:38;;;;;;;6.07;2.97;;;;;;;20.05;61.92;98801.78;5137999;28;20043;-71
2022/06/26 00:35:29;;;;;;;7.43;3.55;;;;;;;19.97;61.19;98805.53;5139761;28;20062;-71
2022/06/26 00:38:19;;;;;;;6.47;3.00;;;;;;;19.73;61.14;98815.06;5145014;28;20070;-71
2022/06/26 00:41:09;;;;;;;4.93;3.38;;;;;;;19.72;62.60;98843.00;5139620;28;20340;-71
2022/06/26 00:44:00;;;;;;;7.60;4.40;;;;;;;19.86;64.60;98868.84;5137930;28;20047;-72
2022/06/26 00:46:51;;;;;;;11.65;4.30;;;;;;;19.86;62.85;98863.47;5122044;28;20051;-72
2022/06/26 00:49:44;;;;;;;6.00;4.03;;;;;;;20.53;60.99;98866.97;5141007;28;20593;-71
2022/06/26 00:52:35;;;;;;;6.78;3.65;;;;;;;20.54;60.57;98862.41;5134202;28;20043;-71
2022/06/26 00:55:26;;;;;;;5.00;3.10;;;;;;;20.59;60.63;98862.59;5140673;28;20490;-70
2022/06/26 00:58:16;;;;;;;6.78;3.70;;;;;;;20.75;60.35;98867.50;5137934;28;20098;-71
2022/06/26 01:01:07;;;;;;;4.63;3.45;;;;;;;20.75;59.82;98864.00;5138492;28;20082;-71
2022/06/26 01:03:57;;;;;;;5.75;3.25;;;;;;;20.81;59.93;98860.44;5143635;28;20150;-71
2022/06/26 01:06:49;;;;;;;4.22;2.75;;;;;;;20.95;58.56;98870.13;5143249;28;20389;-71
2022/06/26 01:09:39;;;;;;;4.07;2.58;;;;;;;21.03;58.90;98883.38;5145135;28;20105;-71
2022/06/26 01:12:30;;;;;;;3.60;2.40;;;;;;;20.81;58.74;98866.66;5141082;28;20520;-71
2022/06/26 01:15:23;;;;;;;23.03;2.67;;;;;;;21.35;58.15;98888.84;5156209;28;20062;-71
2022/06/26 01:18:14;;;;;;;2.65;2.35;;;;;;;21.45;58.17;98882.97;5150191;28;20049;-73
2022/06/26 01:21:05;;;;;;;3.17;2.28;;;;;;;21.30;58.72;98881.38;5143348;28;20081;-71
2022/06/26 01:23:55;;;;;;;4.95;1.92;;;;;;;21.44;58.61;98875.94;5146225;28;20046;-71
2022/06/26 01:26:47;;;;;;;2.42;1.95;;;;;;;21.67;57.85;98873.50;5129918;28;20185;-71
2022/06/26 01:29:38;;;;;;;3.25;1.98;;;;;;;21.57;58.27;98875.84;5123316;29;20091;-71
2022/06/26 01:32:30;;;;;;;3.22;2.33;;;;;;;21.59;58.33;98871.06;5135410;28;20054;-70
2022/06/26 01:35:20;;;;;;;3.67;1.95;;;;;;;21.67;57.86;98862.72;5156786;28;20417;-71
2022/06/26 01:38:22;;;;;;;2.50;1.90;;;;;;;21.65;58.24;98861.25;5142563;28;20152;-73
2022/06/26 01:41:13;;;;;;;4.03;2.00;;;;;;;21.61;58.14;98858.19;5139977;28;20081;-72
2022/06/26 01:44:07;;;;;;;3.35;2.05;;;;;;;21.68;57.96;98850.03;5127589;28;20192;-72
2022/06/26 01:46:57;;;;;;;6.47;2.95;;;;;;;21.54;58.64;98846.59;5143348;28;20057;-71
2022/06/26 01:49:55;;;;;;;5.47;2.28;;;;;;;21.88;57.98;98841.78;5144078;28;20185;-71
2022/06/26 01:52:46;;;;;;;2.83;2.35;;;;;;;21.71;58.50;98853.13;5148271;28;20050;-72
2022/06/26 01:55:37;;;;;;;3.15;2.05;;;;;;;21.61;59.29;98873.53;5147016;28;20042;-71
2022/06/26 01:58:30;;;;;;;3.42;2.58;;;;;;;21.66;59.22;98879.94;5132897;28;20319;-72
2022/06/26 02:01:22;;;;;;;3.70;2.08;;;;;;;21.64;58.62;98873.94;5149608;28;20102;-71
2022/06/26 02:04:16;;;;;;;3.63;2.15;;;;;;;21.73;58.95;98866.41;5141931;28;20505;-73
2022/06/26 02:07:06;;;;;;;2.00;1.80;;;;;;;21.73;59.19;98871.81;5139176;28;20764;-72
2022/06/26 02:16:27;;;;;;;2.20;1.70;;;;;;;21.66;59.44;98869.16;5140615;28;20475;-73
2022/06/26 02:19:18;;;;;;;2.42;1.98;;;;;;;21.68;59.72;98871.63;5153505;28;20051;-72
2022/06/26 02:22:08;;;;;;;2.70;1.50;;;;;;;21.61;59.09;98874.38;5140560;28;20050;-72
2022/06/26 02:25:01;;;;;;;1.88;1.60;;;;;;;21.79;57.91;98869.06;5138243;28;20055;-74
2022/06/26 02:27:52;;;;;;;4.35;1.73;;;;;;;21.57;58.46;98863.19;5145570;28;20497;-71
2022/06/26 02:30:43;;;;;;;5.30;1.63;;;;;;;21.51;58.79;98874.84;5141508;28;20061;-72
2022/06/26 02:33:34;;;;;;;2.28;1.80;;;;;;;21.39;58.54;98876.59;5140377;28;20430;-71
2022/06/26 02:36:25;;;;;;;3.83;1.88;;;;;;;21.30;59.12;98865.19;5140188;28;20133;-73
2022/06/26 02:39:15;;;;;;;5.97;1.55;;;;;;;21.24;59.36;98876.03;5135706;28;20419;-73
2022/06/26 02:42:05;;;;;;;2.75;1.48;;;;;;;21.22;59.16;98878.09;5138915;28;20065;-73
2022/06/26 02:44:56;;;;;;;2.85;1.40;;;;;;;21.12;59.46;98878.56;5141129;28;20058;-73
2022/06/26 02:47:46;;;;;;;1.58;1.40;;;;;;;21.02;59.97;98889.78;5147051;28;20054;-73
2022/06/26 02:50:38;;;;;;;5.22;2.75;;;;;;;21.04;60.00;98882.34;5131121;28;20568;-73
2022/06/26 02:53:28;;;;;;;2.00;1.40;;;;;;;21.06;60.25;98893.75;5135161;28;20069;-73
2022/06/26 02:56:18;;;;;;;1.83;1.60;;;;;;;20.84;61.21;98886.97;5141095;28;20516;-73
2022/06/26 02:59:09;;;;;;;3.78;1.40;;;;;;;20.92;60.71;98886.72;5141688;28;20051;-73
2022/06/26 03:01:59;;;;;;;1.75;1.65;;;;;;;20.57;61.63;98864.69;5144768;28;20465;-73
2022/06/26 03:05:04;;;;;;;3.05;1.42;;;;;;;20.60;61.56;98873.16;5140172;28;20081;-74
2022/06/26 03:07:56;;;;;;;2.50;1.60;;;;;;;20.53;61.99;98876.88;5139450;28;20092;-72
2022/06/26 03:10:47;;;;;;;1.60;1.13;;;;;;;20.32;62.59;98864.47;5131465;28;20074;-73
2022/06/26 03:13:38;;;;;;;3.35;1.50;;;;;;;20.42;62.03;98881.84;5140938;28;20054;-73
2022/06/26 03:16:28;;;;;;;3.72;1.52;;;;;;;20.46;62.18;98874.19;5135462;28;20534;-74
2022/06/26 03:19:20;;;;;;;1.73;1.40;;;;;;;20.42;62.36;98868.41;5141345;28;20625;-72
2022/06/26 03:22:11;;;;;;;1.77;1.60;;;;;;;20.50;62.75;98861.97;5136480;28;20493;-73
2022/06/26 03:25:02;;;;;;;1.42;1.33;;;;;;;20.07;63.00;98846.31;5138766;28;20046;-74
2022/06/26 03:27:52;;;;;;;4.93;1.60;;;;;;;20.37;62.98;98873.59;5140075;28;20493;-73
2022/06/26 03:30:43;;;;;;;2.10;1.50;;;;;;;20.27;63.03;98857.06;5135703;28;20420;-73
2022/06/26 03:33:33;;;;;;;1.48;1.23;;;;;;;20.44;62.43;98878.97;5143357;28;20051;-73
2022/06/26 03:36:25;;;;;;;3.50;1.48;;;;;;;20.30;62.85;98877.34;5141206;28;20417;-73
2022/06/26 03:39:17;;;;;;;4.95;1.50;;;;;;;20.22;63.01;98866.78;5139122;28;20053;-73
2022/06/26 03:42:07;;;;;;;3.35;1.38;;;;;;;20.33;63.27;98871.50;5139771;28;20054;-73
2022/06/26 03:45:00;;;;;;;2.27;1.37;;;;;;;20.43;62.44;98863.88;5136979;28;20046;-73
2022/06/26 03:47:50;;;;;;;3.58;1.48;;;;;;;20.29;62.68;98851.44;5151635;28;20689;-73
2022/06/26 03:50:40;;;;;;;2.47;1.33;;;;;;;20.70;62.04;98864.66;5140571;28;20071;-73
2022/06/26 03:53:31;;;;;;;3.53;1.55;;;;;;;20.52;62.54;98873.38;5138795;28;20069;-73
2022/06/26 03:56:21;;;;;;;1.48;1.25;;;;;;;20.33;63.85;98893.91;5141865;28;20148;-72
2022/06/26 03:59:12;;;;;;;1.85;1.13;;;;;;;20.36;63.58;98889.94;5139891;28;20149;-72
2022/06/26 04:02:03;;;;;;;3.50;1.20;;;;;;;20.47;63.75;98892.03;5146583;28;20597;-73
2022/06/26 04:04:55;;;;;;;1.63;1.52;;;;;;;20.51;63.18;98882.50;5133917;28;20116;-72
2022/06/26 04:07:46;;;;;;;2.47;1.25;;;;;;;20.51;62.59;98893.28;5139718;28;20054;-72
2022/06/26 04:10:44;;;;;;;1.65;1.55;;;;;;;20.53;62.31;98896.59;5140032;28;20095;-72
2022/06/26 04:13:49;;;;;;;4.97;1.77;;;;;;;20.56;62.62;98896.19;5123823;28;20082;-73
2022/06/26 04:16:39;;;;;;;1.42;1.20;;;;;;;20.68;62.86;98901.72;5138112;28;20101;-70
2022/06/26 04:19:31;;;;;;;1.73;1.55;;;;;;;20.77;63.45;98896.94;5139567;28;20062;-70
2022/06/26 04:22:22;;;;;;;2.78;1.58;;;;;;;20.79;62.48;98892.16;5137102;28;20128;-71
2022/06/26 04:25:13;;;;;;;1.50;1.40;;;;;;;20.95;61.74;98899.78;5141090;28;20062;-71
2022/06/26 04:28:05;;;;;;;2.30;1.52;;;;;;;21.00;62.51;98899.97;5146063;28;20069;-71
2022/06/26 04:30:58;;;;;;;1.73;1.63;;;;;;;20.94;62.64;98898.13;5135369;28;20050;-72
2022/06/26 04:33:49;;;;;;;1.38;1.20;;;;;;;21.06;62.89;98901.81;5134060;28;20436;-71
2022/06/26 04:36:39;;;;;;;2.53;1.92;;;;;;;21.11;62.19;98901.16;5136750;28;20517;-71
2022/06/26 04:39:36;;;;;;;3.33;1.60;;;;;;;21.03;62.50;98887.94;5143047;28;20093;-71
2022/06/26 04:42:27;;;;;;;2.47;1.42;;;;;;;21.13;62.62;98892.88;5139606;28;20428;-71
2022/06/26 04:45:17;;;;;;;3.00;1.52;;;;;;;21.20;61.58;98890.97;5138500;28;20062;-71
2022/06/26 04:48:09;;;;;;;2.42;1.50;;;;;;;21.24;61.92;98884.09;5123885;28;20564;-72
2022/06/26 04:50:59;;;;;;;2.65;1.65;;;;;;;21.16;62.89;98895.13;5136162;28;20062;-72
2022/06/26 04:53:50;;;;;;;4.40;1.65;;;;;;;21.35;62.00;98886.13;5138293;28;20045;-71
2022/06/26 04:56:41;;;;;;;2.33;1.77;;;;;;;21.26;61.03;98863.16;5133104;28;20087;-71
2022/06/26 04:59:31;;;;;;;2.25;1.65;;;;;;;21.35;61.53;98876.19;5139003;28;20053;-72
2022/06/26 05:02:27;;;;;;;2.55;1.90;;;;;;;21.39;61.43;98881.13;5137276;28;20141;-71
2022/06/26 05:05:24;;;;;;;3.22;1.77;;;;;;;21.51;61.79;98887.50;5138430;28;20500;-71
2022/06/26 05:08:47;;;;;;;7.38;1.70;;;;;;;21.63;61.91;98884.97;5136392;28;20054;-72
2022/06/26 05:11:41;;;;;;;2.47;2.15;;;;;;;21.72;61.79;98892.56;5143903;28;20051;-71
2022/06/26 05:14:32;;;;;;;3.78;2.05;;;;;;;21.68;61.73;98904.00;5124506;28;20421;-72
2022/06/26 05:17:43;;;;;;;2.70;1.88;;;;;;;21.75;61.29;98900.19;5139880;28;20050;-71
2022/06/26 05:20:33;;;;;;;3.70;2.08;;;;;;;21.84;61.43;98906.19;5139170;28;20140;-72
2022/06/26 05:23:28;;;;;;;2.40;1.83;;;;;;;21.98;61.18;98915.00;5137759;28;20050;-71
2022/06/26 05:26:23;;;;;;;4.07;1.70;;;;;;;21.99;61.16;98906.69;5138770;28;20062;-71
2022/06/26 05:29:16;;;;;;;1.90;1.80;;;;;;;22.14;61.04;98913.63;5141377;28;20528;-72
2022/06/26 05:32:07;;;;;;;2.40;1.63;;;;;;;22.23;60.32;98917.75;5137347;28;20112;-72
2022/06/26 05:34:57;;;;;;;4.53;1.60;;;;;;;22.28;58.64;98917.88;5134946;28;20050;-71
2022/06/26 05:37:48;;;;;;;2.17;1.50;;;;;;;22.39;59.02;98922.59;5139083;28;20050;-72
2022/06/26 05:40:39;;;;;;;2.33;1.80;;;;;;;22.46;60.25;98927.94;5138289;28;20709;-71
2022/06/26 05:43:30;;;;;;;2.40;1.75;;;;;;;22.50;58.67;98946.16;5136675;28;20544;-71
2022/06/26 05:46:21;;;;;;;3.97;1.60;;;;;;;22.63;60.20;98947.09;5125035;28;20077;-72
2022/06/26 05:49:41;;;;;;;1.42;1.33;;;;;;;22.65;56.20;98950.38;5144193;28;20055;-71
2022/06/26 05:52:59;;;;;;;2.30;1.48;;;;;;;22.92;59.05;98957.19;5142311;28;20181;-71
2022/06/26 05:56:04;;;;;;;3.35;1.60;;;;;;;22.76;59.17;98952.38;5138766;28;20054;-72
2022/06/26 05:59:01;;;;;;;2.53;1.48;;;;;;;22.84;58.06;98949.34;5153814;28;20073;-72
2022/06/26 06:02:26;;;;;;;2.35;1.45;;;;;;;22.93;57.42;98947.22;5174234;28;20053;-71
2022/06/26 06:05:17;;;;;;;1.73;1.40;;;;;;;23.02;57.64;98959.41;5140444;28;20066;-71
2022/06/26 06:08:09;;;;;;;6.63;1.10;;;;;;;22.83;58.31;98961.22;5139459;28;20077;-71
2022/06/26 06:10:59;;;;;;;5.45;1.35;;;;;;;23.16;57.04;98968.19;5142405;28;20428;-72
2022/06/26 06:13:49;;;;;;;3.85;1.10;;;;;;;23.17;56.36;98961.72;5142154;28;20096;-72
2022/06/26 06:16:41;;;;;;;1.23;1.13;;;;;;;23.05;55.42;98953.53;5140179;28;20061;-72
2022/06/26 06:19:31;;;;;;;1.92;1.25;;;;;;;23.13;57.08;98955.09;5141821;28;20069;-72
2022/06/26 06:22:22;;;;;;;4.32;1.35;;;;;;;23.19;54.95;98941.50;5122721;28;20076;-72
2022/06/26 06:25:15;;;;;;;1.10;1.00;;;;;;;23.43;55.21;98950.56;5140056;28;20643;-71
2022/06/26 06:28:06;;;;;;;1.15;1.05;;;;;;;23.65;52.84;98950.91;5141339;28;20054;-72
2022/06/26 06:31:01;;;;;;;1.10;1.00;;;;;;;23.31;53.58;98957.81;5135634;28;20113;-72
2022/06/26 06:33:53;;;;;;;1.23;1.13;;;;;;;23.30;53.92;98966.97;5140524;28;20053;-73
2022/06/26 06:36:43;;;;;;;1.23;0.90;;;;;;;23.34;54.04;98967.31;5140477;28;20108;-72
2022/06/26 06:39:34;;;;;;;1.15;1.05;;;;;;;23.24;54.85;98973.28;5141659;28;20076;-73
2022/06/26 06:42:24;;;;;;;2.78;0.90;;;;;;;23.38;53.86;98979.38;5138604;28;20497;-72
2022/06/26 06:45:15;;;;;;;2.72;1.00;;;;;;;23.44;53.20;98957.66;5151449;28;20057;-69
2022/06/26 06:48:25;;;;;;;2.63;1.40;;;;;;;23.57;52.29;98959.31;5140572;28;20421;-70
2022/06/26 06:51:34;;;;;;;1.25;1.02;;;;;;;23.61;51.24;98967.84;5140360;28;20149;-71
2022/06/26 06:54:25;;;;;;;1.00;0.90;;;;;;;23.96;51.81;98961.75;5140601;28;20185;-71
2022/06/26 06:57:15;;;;;;;2.38;1.40;;;;;;;24.91;47.90;98966.22;5138537;28;20683;-70
2022/06/26 07:00:06;;;;;;;1.45;0.82;;;;;;;25.14;47.85;98982.47;5140004;28;20073;-73
2022/06/26 07:03:02;;;;;;;0.82;0.80;;;;;;;25.92;45.94;98975.63;5140692;28;20051;-74
2022/06/26 07:05:52;;;;;;;0.73;0.73;;;;;;;26.51;44.95;98967.13;5126338;28;20061;-73
2022/06/26 07:08:43;;;;;;;2.38;0.80;;;;;;;27.10;41.95;98975.59;5129914;28;20050;-74
2022/06/26 07:11:33;;;;;;;0.68;0.68;;;;;;;26.88;41.43;98972.00;5139361;28;20544;-72
2022/06/26 07:14:24;;;;;;;1.30;0.70;;;;;;;27.36;40.27;98965.88;5135936;28;20509;-68
2022/06/26 07:17:14;;;;;;;1.58;0.90;;;;;;;27.10;41.51;98970.16;5139841;28;20644;-71
2022/06/26 07:20:05;;;;;;;1.48;0.77;;;;;;;27.80;40.12;98978.66;5136763;28;20094;-70
2022/06/26 07:22:56;;;;;;;0.77;0.75;;;;;;;28.00;42.10;98987.03;5150486;28;20043;-71
2022/06/26 07:26:03;;;;;;;1.02;0.90;;;;;;;28.29;39.32;98984.03;5142769;28;20154;-72
2022/06/26 07:28:58;;;;;;;0.93;0.80;;;;;;;27.67;41.89;98995.38;5134901;28;20053;-69
2022/06/26 07:32:01;;;;;;;0.65;0.60;;;;;;;27.08;40.41;98993.25;5135650;28;20051;-72
2022/06/26 07:34:52;;;;;;;0.60;0.60;;;;;;;28.32;38.35;98989.78;5129597;28;20524;-70
2022/06/26 07:37:43;;;;;;;0.77;0.73;;;;;;;27.66;41.15;98986.38;5137273;28;20053;-71
2022/06/26 07:40:35;;;;;;;1.20;0.85;;;;;;;28.90;40.03;98978.22;5136836;28;20117;-72
2022/06/26 07:43:26;;;;;;;1.77;0.77;;;;;;;28.50;40.01;98963.22;5137366;28;20058;-69
2022/06/26 07:46:16;;;;;;;1.40;0.70;;;;;;;29.63;38.83;98975.59;5137945;28;20054;-71
2022/06/26 07:49:12;;;;;;;1.33;0.80;;;;;;;29.00;38.76;98976.38;5137442;28;20081;-72
2022/06/26 07:52:04;;;;;;;0.90;0.75;;;;;;;29.35;36.48;98985.84;5140351;28;20053;-72
2022/06/26 07:54:54;;;;;;;0.57;0.57;;;;;;;29.66;37.88;98988.72;5136053;28;20109;-71
2022/06/26 07:57:44;;;;;;;1.77;0.82;;;;;;;30.38;37.53;98985.03;5137038;28;20049;-72
2022/06/26 08:00:34;;;;;;;1.02;0.60;;;;;;;29.91;37.67;98982.50;5139076;28;20458;-75
2022/06/26 08:03:24;;;;;;;1.17;0.50;;;;;;;29.47;36.87;98981.00;5134711;28;20460;-72
2022/06/26 08:06:15;;;;;;;1.63;0.90;;;;;;;30.65;37.04;98975.69;5137557;28;20039;-73
2022/06/26 08:09:05;;;;;;;0.88;0.80;;;;;;;30.18;36.73;98980.38;5140092;28;20102;-70
2022/06/26 08:11:56;;;;;;;0.68;0.68;;;;;;;28.80;38.63;98968.06;5126868;28;20125;-72
2022/06/26 08:14:47;;;;;;;1.10;0.70;;;;;;;29.83;37.25;98959.22;5124719;28;20133;-74
2022/06/26 08:17:37;;;;;;;0.80;0.80;;;;;;;30.42;37.78;98955.19;5134788;28;20042;-72
2022/06/26 08:20:28;;;;;;;1.52;0.80;;;;;;;30.60;36.74;98953.81;5139564;28;20090;-72
2022/06/26 08:23:18;;;;;;;0.70;0.65;;;;;;;30.18;37.45;98944.81;5133294;28;20419;-73
2022/06/26 08:26:08;;;;;;;0.88;0.60;;;;;;;30.55;36.15;98956.56;5139228;28;20054;-70
2022/06/26 08:28:58;;;;;;;0.98;0.77;;;;;;;31.39;38.31;98957.75;5139686;28;20066;-71
2022/06/26 08:31:48;;;;;;;0.60;0.60;;;;;;;30.88;35.51;98958.72;5137302;28;20121;-70
2022/06/26 08:34:38;;;;;;;0.60;0.60;;;;;;;29.63;36.73;98946.34;5131224;28;20039;-73
2022/06/26 08:37:28;;;;;;;1.17;0.63;;;;;;;29.26;37.26;98960.13;5130849;28;20054;-73
2022/06/26 08:40:18;;;;;;;0.98;0.60;;;;;;;30.80;36.16;98963.94;5139835;28;20136;-71
2022/06/26 08:43:09;;;;;;;2.13;0.70;;;;;;;31.01;36.35;98959.22;5125547;28;20560;-70
2022/06/26 08:46:04;;;;;;;1.27;0.80;;;;;;;30.79;37.67;98962.28;5140717;28;20118;-70
2022/06/26 08:48:57;;;;;;;0.90;0.82;;;;;;;30.30;37.51;98957.38;5140442;28;20047;-71
2022/06/26 08:51:49;;;;;;;0.88;0.70;;;;;;;30.17;37.97;98967.75;5139063;28;20711;-71
2022/06/26 08:54:39;;;;;;;2.05;0.80;;;;;;;30.61;37.95;98959.00;5139705;28;20417;-71
2022/06/26 08:57:30;;;;;;;4.22;0.93;;;;;;;32.26;36.24;98952.53;5139472;28;20129;-73
2022/06/26 09:00:20;;;;;;;1.00;0.70;;;;;;;31.69;36.15;98962.25;5135326;28;20051;-71
2022/06/26 09:03:10;;;;;;;0.90;0.52;;;;;;;30.72;36.26;98962.53;5138535;28;20054;-72
2022/06/26 09:06:03;;;;;;;1.30;0.88;;;;;;;31.39;35.61;98946.78;5139372;28;20109;-72
2022/06/26 09:08:53;;;;;;;0.75;0.73;;;;;;;32.26;34.62;98969.00;5140737;28;20420;-71
2022/06/26 09:11:45;;;;;;;0.63;0.60;;;;;;;32.32;33.10;98966.19;5140105;28;20073;-71
2022/06/26 09:14:35;;;;;;;0.88;0.57;;;;;;;31.65;35.29;98963.91;5140305;28;20118;-71
2022/06/26 09:17:25;;;;;;;1.17;0.70;;;;;;;32.12;35.39;98969.91;5140555;28;20459;-71
2022/06/26 09:20:16;;;;;;;1.08;0.60;;;;;;;32.00;35.22;98967.56;5140155;28;20082;-71
2022/06/26 09:23:06;;;;;;;1.42;0.70;;;;;;;30.89;36.15;98976.78;5128404;28;20058;-71
2022/06/26 09:25:56;;;;;;;1.73;0.60;;;;;;;31.38;35.11;98975.28;5139386;28;20063;-70
2022/06/26 09:28:47;;;;;;;1.40;0.80;;;;;;;31.64;37.14;98954.03;5143408;28;20054;-72
2022/06/26 09:31:38;;;;;;;1.35;0.90;;;;;;;31.17;35.78;98976.44;5143596;28;20058;-71
2022/06/26 09:34:28;;;;;;;1.00;0.80;;;;;;;31.18;37.62;98975.31;5143640;28;20109;-70
2022/06/26 09:37:20;;;;;;;1.85;0.60;;;;;;;31.44;36.39;98963.19;5142778;28;20508;-70
2022/06/26 09:40:30;;;;;;;1.33;0.88;;;;;;;30.63;36.15;98967.78;5143730;28;20497;-71
2022/06/26 09:43:28;;;;;;;0.73;0.68;;;;;;;31.76;36.20;98968.22;5129741;28;20133;-71
2022/06/26 09:46:18;;;;;;;1.25;0.80;;;;;;;32.43;35.68;98954.06;5143259;28;20164;-70
2022/06/26 09:49:10;;;;;;;44.88;2.65;;;;;;;32.39;36.43;98969.44;5143928;28;20137;-70
2022/06/26 09:52:00;;;;;;;0.85;0.60;;;;;;;30.77;37.58;98969.97;5142575;28;20088;-70
2022/06/26 09:54:51;;;;;;;0.95;0.90;;;;;;;30.89;36.40;98971.31;5143369;28;20058;-70
2022/06/26 09:57:48;;;;;;;0.70;0.70;;;;;;;32.48;35.16;98968.56;5143711;28;20524;-70
2022/06/26 10:00:39;;;;;;;1.05;0.73;;;;;;;31.89;36.84;98955.84;5142330;28;20149;-71
2022/06/26 10:06:43;;;;;;;0.80;0.80;;;;;;;31.61;34.82;98960.09;5142967;28;20055;-72
2022/06/26 10:09:35;;;;;;;1.33;0.70;;;;;;;31.65;36.04;98952.94;5140130;28;20571;-71
2022/06/26 10:12:25;;;;;;;0.88;0.77;;;;;;;31.75;34.97;98952.88;5140867;28;20051;-74
2022/06/26 10:15:18;;;;;;;1.00;0.60;;;;;;;30.88;35.49;98963.38;5140386;28;20058;-71
2022/06/26 10:18:28;;;;;;;0.50;0.50;;;;;;;31.41;34.47;98955.53;5142066;28;20051;-72
2022/06/26 10:21:18;;;;;;;1.42;0.70;;;;;;;30.86;37.04;98941.75;5135833;28;20115;-73
2022/06/26 10:24:08;;;;;;;2.08;0.90;;;;;;;30.64;35.65;98942.03;5142552;28;20051;-72
2022/06/26 10:27:01;;;;;;;2.45;0.98;;;;;;;30.61;37.20;98958.19;5135715;28;20144;-72
2022/06/26 10:30:03;;;;;;;0.70;0.70;;;;;;;30.60;36.24;98951.09;5142541;28;20058;-72
2022/06/26 10:33:26;;;;;;;1.20;1.08;;;;;;;31.51;34.95;98951.91;5136552;28;20065;-71
2022/06/26 10:36:23;;;;;;;1.83;0.60;;;;;;;31.29;38.10;98935.81;5149359;28;20413;-72
2022/06/26 10:39:14;;;;;;;2.38;0.73;;;;;;;32.23;34.39;98944.88;5142503;28;20054;-73
2022/06/26 10:45:32;;;;;;;2.08;0.60;;;;;;;31.71;37.16;98920.84;5133466;28;20063;-73
2022/06/26 10:48:23;;;;;;;2.80;0.73;;;;;;;32.61;36.02;98936.88;5139208;28;20737;-75
2022/06/26 10:51:23;;;;;;;0.77;0.73;;;;;;;31.91;35.85;98933.63;5139229;28;20051;-75
2022/06/26 10:54:27;;;;;;;0.50;0.50;;;;;;;31.70;34.31;98933.72;5142193;28;20057;-74
2022/06/26 10:57:31;;;;;;;1.38;0.65;;;;;;;30.57;36.15;98929.75;5130140;28;20531;-73
2022/06/26 11:00:21;;;;;;;;;;;;;;;31.94;37.08;98931.13;5142658;28;20050;-73
2022/06/26 11:03:17;;;;;;;1.30;0.82;;;;;;;31.61;36.19;98935.41;5139562;28;19926;-74
2022/06/26 11:06:09;;;;;;;1.08;0.88;;;;;;;31.93;36.19;98934.97;5134125;28;20161;-72
2022/06/26 11:09:00;;;;;;;0.77;0.77;;;;;;;31.82;36.65;98934.19;5137626;28;20060;-72
2022/06/26 11:11:52;;;;;;;0.70;0.70;;;;;;;32.27;34.36;98929.47;5132665;28;20145;-71
2022/06/26 11:14:42;;;;;;;0.80;0.80;;;;;;;31.47;34.40;98926.19;5136504;28;20461;-71
2022/06/26 11:17:33;;;;;;;0.77;0.70;;;;;;;31.46;35.48;98922.63;5137514;28;20700;-72
2022/06/26 11:23:36;;;;;;;1.02;0.82;;;;;;;30.88;36.90;98914.09;5141416;28;20110;-72
2022/06/26 11:26:27;;;;;;;1.10;0.90;;;;;;;30.80;37.50;98911.94;5141781;28;20062;-72
2022/06/26 11:29:17;;;;;;;1.17;0.85;;;;;;;30.50;39.34;98902.69;5139448;28;20057;-70
2022/06/26 11:32:09;;;;;;;0.77;0.70;;;;;;;30.57;38.07;98903.19;5139819;28;20054;-71
2022/06/26 11:34:59;;;;;;;1.02;0.80;;;;;;;30.77;38.83;98902.34;5138943;28;20046;-69
2022/06/26 11:37:50;;;;;;;1.05;0.85;;;;;;;30.04;39.09;98899.13;5130232;28;20059;-71
2022/06/26 11:40:42;;;;;;;2.72;0.90;;;;;;;29.92;40.32;98888.47;5138831;28;20065;-72
2022/06/26 11:43:33;;;;;;;4.93;1.17;;;;;;;30.47;39.47;98902.41;5135337;28;20105;-72
2022/06/26 11:46:24;;;;;;;1.13;0.95;;;;;;;30.18;40.94;98892.84;5137171;28;20406;-72
2022/06/26 11:49:14;;;;;;;0.80;0.70;;;;;;;30.27;39.80;98898.59;5140146;28;20192;-71
2022/06/26 11:52:07;;;;;;;1.35;0.60;;;;;;;30.33;38.37;98889.31;5138726;28;20058;-71
2022/06/26 11:55:00;;;;;;;0.73;0.73;;;;;;;31.05;38.22;98889.91;5136978;28;20101;-72
2022/06/26 11:57:57;;;;;;;2.72;0.85;;;;;;;30.30;40.49;98889.00;5146241;28;20047;-71
2022/06/26 12:00:47;;;;;;;1.15;0.93;;;;;;;29.29;41.71;98893.25;5138959;28;20397;-70
2022/06/26 12:03:47;;;;;;;0.98;0.80;;;;;;;29.20;41.64;98891.03;5139052;28;20552;-71
2022/06/26 12:06:40;;;;;;;4.85;1.27;;;;;;;29.58;39.49;98891.69;5138133;28;20739;-73
2022/06/26 12:09:32;;;;;;;2.67;1.20;;;;;;;29.90;39.91;98894.22;5137519;28;20136;-71
2022/06/26 12:12:26;;;;;;;1.25;1.08;;;;;;;29.71;39.04;98893.09;5138578;28;20417;-72
2022/06/26 12:15:16;;;;;;;1.10;1.00;;;;;;;30.45;38.64;98889.00;5138319;28;20169;-71
2022/06/26 12:18:09;;;;;;;1.10;0.88;;;;;;;30.02;37.54;98874.78;5139290;28;20109;-72
2022/06/26 12:20:59;;;;;;;1.25;0.88;;;;;;;30.64;38.93;98872.81;5138138;28;20441;-71
2022/06/26 12:23:52;;;;;;;1.15;1.00;;;;;;;30.54;39.18;98870.91;5133274;28;20051;-72
2022/06/26 12:26:43;;;;;;;2.38;1.75;;;;;;;30.36;38.90;98853.16;5131394;28;20054;-71
2022/06/26 12:29:34;;;;;;;1.48;1.23;;;;;;;29.10;40.37;98858.22;5137913;28;20695;-73
2022/06/26 12:32:23;;;;;;;1.13;1.02;;;;;;;28.96;40.96;98863.34;5136597;28;20054;-70
2022/06/26 12:35:13;;;;;;;1.75;1.10;;;;;;;29.31;42.28;98871.97;5134704;28;20272;-70
2022/06/26 12:38:03;;;;;;;1.92;1.20;;;;;;;30.19;38.76;98871.78;5136003;28;20054;-71
2022/06/26 12:40:55;;;;;;;8.07;1.38;;;;;;;30.24;39.11;98857.31;5137499;28;20054;-71
2022/06/26 12:43:47;;;;;;;0.77;0.77;;;;;;;30.33;40.10;98867.41;5138847;28;20509;-71
2022/06/26 12:46:41;;;;;;;3.70;1.10;;;;;;;30.28;39.61;98867.41;5139503;28;20047;-71
2022/06/26 12:49:31;;;;;;;1.50;0.93;;;;;;;29.58;40.03;98869.00;5139805;28;20091;-70
2022/06/26 12:52:21;;;;;;;2.97;0.98;;;;;;;29.21;40.34;98861.84;5137606;28;20049;-72
2022/06/26 12:55:12;;;;;;;1.40;0.90;;;;;;;29.46;41.30;98859.13;5136343;28;20047;-72
2022/06/26 12:58:03;;;;;;;3.25;1.10;;;;;;;29.31;40.72;98845.47;5144091;28;20047;-72
2022/06/26 13:00:53;;;;;;;2.42;1.20;;;;;;;29.90;39.44;98846.91;5140223;28;20097;-71
2022/06/26 13:03:44;;;;;;;1.42;1.00;;;;;;;29.49;40.47;98838.66;5143384;28;20066;-73
2022/06/26 13:06:35;;;;;;;1.75;0.90;;;;;;;29.34;39.30;98841.34;5141548;28;20116;-72
2022/06/26 13:09:25;;;;;;;1.90;1.05;;;;;;;29.54;39.05;98840.56;5140385;28;20077;-73
2022/06/26 13:12:15;;;;;;;3.60;1.00;;;;;;;29.67;38.52;98840.91;5141234;28;20061;-73
2022/06/26 13:15:05;;;;;;;4.43;0.98;;;;;;;29.71;38.37;98835.72;5142488;28;20073;-72
2022/06/26 13:17:55;;;;;;;0.70;0.70;;;;;;;30.00;38.66;98832.41;5140157;28;20453;-72
2022/06/26 13:20:47;;;;;;;2.05;0.85;;;;;;;30.27;37.87;98841.16;5141633;28;20101;-72
2022/06/26 13:23:38;;;;;;;1.05;0.95;;;;;;;29.44;40.38;98850.41;5143494;28;20073;-72
2022/06/26 13:26:28;;;;;;;4.32;1.20;;;;;;;29.29;40.28;98850.38;5142814;28;20513;-72
2022/06/26 13:29:19;;;;;;;1.13;0.80;;;;;;;29.43;39.18;98848.75;5143975;28;20185;-72
2022/06/26 13:32:09;;;;;;;4.10;1.40;;;;;;;29.67;40.31;98840.09;5142041;28;20535;-72
2022/06/26 13:35:00;;;;;;;0.85;0.80;;;;;;;29.53;39.16;98833.47;5143260;28;20054;-72
2022/06/26 13:37:50;;;;;;;1.15;1.05;;;;;;;29.28;39.39;98829.63;5139163;28;20154;-72
2022/06/26 13:40:41;;;;;;;1.15;1.05;;;;;;;29.89;38.98;98826.13;5143133;28;20061;-72
2022/06/26 13:43:30;;;;;;;2.08;1.10;;;;;;;29.64;38.78;98840.63;5140242;28;20128;-73
2022/06/26 13:46:21;;;;;;;0.98;0.95;;;;;;;29.62;38.98;98818.22;5135581;28;20097;-71
2022/06/26 13:49:11;;;;;;;3.67;1.45;;;;;;;29.26;40.26;98829.06;5142158;28;20053;-70